Time;durP1;ratioP1;P1;durP2;ratioP2;P2;SDS_P1;SDS_P2;PMS_P1;PMS_P2;Temp;Humidity;BMP_temperature;BMP_pressure;BME280_temperature;BME280_humidity;BME280_pressure;Samples;Min_cycle;Max_cycle;Signal;HPM_P1;HPM_P2
2023/09/11 00:00:33;;;;;;;9.75;8.88;;;;;;;24.16;65.52;95427.56;5049347;28;20697;-85
2023/09/11 00:02:59;;;;;;;10.77;9.48;;;;;;;24.07;66.41;95433.34;5045440;28;20229;-85
2023/09/11 00:05:26;;;;;;;9.77;8.82;;;;;;;24.00;66.33;95448.63;5048972;28;20596;-85
2023/09/11 00:07:52;;;;;;;9.48;8.57;;;;;;;24.01;66.43;95442.31;5033573;28;20317;-85
2023/09/11 00:10:19;;;;;;;10.13;9.15;;;;;;;24.01;66.73;95454.69;5015047;28;20660;-85
2023/09/11 00:12:46;;;;;;;9.45;8.65;;;;;;;23.90;66.57;95456.50;5009236;28;20199;-84
2023/09/11 00:15:13;;;;;;;10.10;9.25;;;;;;;23.81;67.42;95473.09;5010115;28;20214;-85
2023/09/11 00:17:39;;;;;;;9.60;8.70;;;;;;;23.72;68.06;95470.97;5008915;28;20203;-85
2023/09/11 00:20:10;;;;;;;9.82;9.00;;;;;;;23.73;68.10;95475.19;5046469;28;20212;-85
2023/09/11 00:22:36;;;;;;;9.85;9.05;;;;;;;23.67;68.69;95483.31;5048765;28;20260;-85
2023/09/11 00:25:03;;;;;;;9.70;8.80;;;;;;;23.67;68.24;95483.31;5043490;28;20575;-85
2023/09/11 00:27:29;;;;;;;9.90;9.00;;;;;;;23.64;68.21;95478.59;5028686;28;20252;-85
2023/09/11 00:29:57;;;;;;;9.43;8.57;;;;;;;23.65;68.20;95472.28;5029060;28;20199;-85
2023/09/11 00:32:24;;;;;;;8.75;8.05;;;;;;;23.66;67.89;95472.03;5028916;28;20574;-85
2023/09/11 00:34:50;;;;;;;9.15;8.45;;;;;;;23.63;68.55;95474.38;5034044;28;20201;-84
2023/09/11 00:37:17;;;;;;;10.00;9.10;;;;;;;23.51;68.77;95482.47;5048733;28;20222;-86
2023/09/11 00:39:44;;;;;;;9.52;8.55;;;;;;;23.58;68.57;95480.41;5048707;28;20197;-85
2023/09/11 00:42:10;;;;;;;8.93;8.20;;;;;;;23.64;68.12;95465.44;5045390;28;20590;-86
2023/09/11 00:44:37;;;;;;;9.45;8.65;;;;;;;23.64;68.42;95476.75;5028979;28;20663;-85
2023/09/11 00:47:05;;;;;;;9.27;8.48;;;;;;;23.55;68.61;95478.31;5028863;28;20232;-85
2023/09/11 00:49:32;;;;;;;8.50;7.90;;;;;;;23.46;68.86;95487.72;5028461;28;20638;-85
2023/09/11 00:51:59;;;;;;;8.80;8.00;;;;;;;23.47;69.50;95488.53;5042501;28;20210;-86
2023/09/11 00:54:27;;;;;;;8.88;8.07;;;;;;;23.48;69.39;95492.69;5048587;28;20209;-85
2023/09/11 00:56:53;;;;;;;8.95;8.25;;;;;;;23.39;69.39;95498.47;5048049;28;20225;-85
2023/09/11 00:59:22;;;;;;;9.55;8.70;;;;;;;23.36;69.83;95501.63;5048724;28;20208;-85
2023/09/11 01:01:49;;;;;;;9.32;8.52;;;;;;;23.38;69.21;95496.91;5048421;28;20198;-85
2023/09/11 01:04:17;;;;;;;9.23;8.43;;;;;;;23.28;69.84;95511.84;5027871;28;20747;-85
2023/09/11 01:06:44;;;;;;;9.73;8.82;;;;;;;23.35;69.58;95501.88;5026444;28;20237;-85
2023/09/11 01:09:10;;;;;;;8.98;8.27;;;;;;;23.40;69.47;95505.31;5040216;28;20314;-85
2023/09/11 01:11:36;;;;;;;9.27;8.48;;;;;;;23.35;69.72;95505.28;5028102;28;20194;-85
2023/09/11 01:14:03;;;;;;;8.85;8.05;;;;;;;23.28;69.92;95503.97;5028714;28;20209;-85
2023/09/11 01:16:35;;;;;;;9.07;8.38;;;;;;;23.31;69.98;95508.69;5028380;28;20225;-85
2023/09/11 01:19:10;;;;;;;9.57;8.68;;;;;;;23.35;69.63;95515.00;5027734;28;20237;-86
2023/09/11 01:22:16;;;;;;;9.60;8.73;;;;;;;23.28;70.17;95514.47;5028421;28;20202;-86
2023/09/11 01:24:59;;;;;;;9.23;8.43;;;;;;;23.12;70.84;95523.31;5043924;28;20209;-85
2023/09/11 01:28:03;;;;;;;9.45;8.65;;;;;;;23.18;70.49;95524.94;5023264;28;20217;-86
2023/09/11 01:30:33;;;;;;;9.75;8.95;;;;;;;23.14;70.76;95521.25;5031466;28;20213;-85
2023/09/11 01:33:00;;;;;;;9.43;8.63;;;;;;;23.19;70.64;95508.13;5032220;28;20197;-85
2023/09/11 01:35:27;;;;;;;9.77;9.00;;;;;;;23.19;70.67;95519.44;5032288;28;20724;-85
2023/09/11 01:37:55;;;;;;;9.50;8.65;;;;;;;23.30;70.31;95510.53;5031844;28;20209;-85
2023/09/11 01:40:24;;;;;;;9.18;8.40;;;;;;;23.33;70.13;95499.50;5045779;28;20202;-85
2023/09/11 01:42:55;;;;;;;9.80;8.98;;;;;;;23.28;70.18;95496.88;5020750;28;20317;-85
2023/09/11 01:45:22;;;;;;;10.40;9.43;;;;;;;23.28;70.24;95498.72;5032197;28;20213;-85
2023/09/11 01:47:52;;;;;;;8.85;8.18;;;;;;;23.18;71.08;95515.22;5032158;28;20198;-85
2023/09/11 01:50:22;;;;;;;9.52;8.63;;;;;;;23.15;71.29;95515.72;5032246;28;20581;-85
2023/09/11 01:52:49;;;;;;;8.90;8.20;;;;;;;23.19;70.83;95523.91;5031708;28;20418;-85
2023/09/11 01:55:17;;;;;;;9.18;8.48;;;;;;;23.20;71.14;95518.38;5036111;28;20568;-85
2023/09/11 01:57:43;;;;;;;9.77;8.50;;;;;;;23.15;71.34;95526.25;5051710;28;20213;-85
2023/09/11 02:00:11;;;;;;;8.98;8.27;;;;;;;23.11;71.83;95534.88;5035658;28;20210;-85
2023/09/11 02:02:38;;;;;;;9.20;8.50;;;;;;;23.08;72.07;95533.59;5026437;28;20205;-85
2023/09/11 02:05:07;;;;;;;9.05;8.32;;;;;;;23.07;72.25;95532.78;5031634;28;20210;-84
2023/09/11 02:07:33;;;;;;;9.13;8.32;;;;;;;23.09;71.81;95530.66;5031594;28;20249;-85
2023/09/11 02:10:00;;;;;;;8.68;7.97;;;;;;;23.07;72.30;95527.53;5016523;28;20281;-85
2023/09/11 02:12:26;;;;;;;8.60;8.00;;;;;;;23.15;71.79;95528.06;5039273;28;20829;-85
2023/09/11 02:14:53;;;;;;;9.10;8.30;;;;;;;23.15;72.11;95542.00;5051435;28;20208;-85
2023/09/11 02:17:19;;;;;;;9.48;8.75;;;;;;;23.14;72.29;95527.28;5050775;28;20724;-85
2023/09/11 02:19:46;;;;;;;8.88;8.18;;;;;;;23.11;72.10;95532.25;5051140;28;20677;-85
2023/09/11 02:22:13;;;;;;;9.55;8.85;;;;;;;23.14;72.17;95537.00;5041527;28;20209;-85
2023/09/11 02:24:40;;;;;;;9.40;8.65;;;;;;;23.13;72.21;95532.78;5018541;28;20241;-85
2023/09/11 02:27:06;;;;;;;9.50;8.75;;;;;;;23.01;72.97;95541.69;5024129;28;20231;-85
2023/09/11 02:29:33;;;;;;;9.05;8.20;;;;;;;23.02;73.03;95539.84;5051233;28;20216;-85
2023/09/11 02:32:00;;;;;;;9.60;8.88;;;;;;;22.97;72.95;95535.34;5051629;28;20209;-86
2023/09/11 02:34:27;;;;;;;9.85;9.00;;;;;;;22.94;72.83;95527.19;5051040;28;20284;-85
2023/09/11 02:36:53;;;;;;;9.38;8.48;;;;;;;22.93;73.36;95544.00;5051181;28;20221;-86
2023/09/11 02:39:21;;;;;;;8.63;8.02;;;;;;;22.94;73.27;95540.31;5050000;28;20216;-85
2023/09/11 02:41:50;;;;;;;9.57;8.70;;;;;;;22.90;73.36;95547.16;5050938;28;20201;-85
2023/09/11 02:44:19;;;;;;;9.57;8.88;;;;;;;22.89;73.29;95546.34;5039443;28;20870;-85
2023/09/11 02:46:45;;;;;;;9.35;8.55;;;;;;;22.98;73.25;95544.81;5050560;28;20226;-85
2023/09/11 02:49:12;;;;;;;9.48;8.65;;;;;;;22.93;73.42;95552.66;5050927;28;20212;-85
2023/09/11 02:51:38;;;;;;;9.60;8.73;;;;;;;22.90;74.16;95549.78;5050739;28;20220;-85
2023/09/11 02:54:05;;;;;;;9.70;8.95;;;;;;;22.89;73.96;95554.22;5050629;28;20197;-85
2023/09/11 02:56:34;;;;;;;9.57;8.75;;;;;;;22.86;74.59;95561.81;5030416;28;20222;-85
2023/09/11 02:59:01;;;;;;;9.45;8.75;;;;;;;22.92;74.08;95547.66;5027796;28;20575;-85
2023/09/11 03:01:28;;;;;;;9.40;8.60;;;;;;;22.90;74.34;95552.41;5048927;28;20292;-85
2023/09/11 03:03:54;;;;;;;9.32;8.63;;;;;;;22.91;73.90;95548.69;5050426;28;20222;-85
2023/09/11 03:06:21;;;;;;;9.30;8.60;;;;;;;22.82;74.81;95558.13;5050983;28;20230;-85
2023/09/11 03:08:48;;;;;;;9.45;8.73;;;;;;;22.75;75.42;95581.94;5045408;28;20206;-85
2023/09/11 03:11:14;;;;;;;9.27;8.57;;;;;;;22.73;76.12;95589.25;5030580;28;20209;-85
2023/09/11 03:13:42;;;;;;;9.63;8.75;;;;;;;22.72;75.62;95588.47;5030219;28;20202;-85
2023/09/11 03:16:10;;;;;;;9.40;8.63;;;;;;;22.74;76.03;95585.59;5034964;28;20226;-85
2023/09/11 03:18:37;;;;;;;9.57;8.80;;;;;;;22.77;76.20;95593.00;5038290;28;20290;-85
2023/09/11 03:21:03;;;;;;;9.82;8.98;;;;;;;22.75;76.19;95589.81;5019306;28;20673;-85
2023/09/11 03:23:30;;;;;;;9.70;8.90;;;;;;;22.65;76.98;95608.13;5030092;28;20210;-85
2023/09/11 03:25:56;;;;;;;9.85;9.05;;;;;;;22.69;77.06;95591.63;5030116;28;20734;-85
2023/09/11 03:28:23;;;;;;;9.20;8.50;;;;;;;22.78;76.93;95602.47;5030080;28;20198;-85
2023/09/11 03:30:51;;;;;;;9.73;8.93;;;;;;;22.82;76.51;95593.03;5030446;28;20228;-85
2023/09/11 03:33:18;;;;;;;9.50;8.70;;;;;;;22.87;76.12;95587.03;5043483;28;20225;-85
2023/09/11 03:35:46;;;;;;;9.30;8.60;;;;;;;22.90;76.16;95579.41;5049934;28;20221;-85
2023/09/11 03:38:12;;;;;;;9.40;8.50;;;;;;;22.93;76.36;95586.00;5050055;28;20212;-85
2023/09/11 03:40:39;;;;;;;9.80;8.98;;;;;;;22.93;76.76;95604.38;5050159;28;20205;-85
2023/09/11 03:43:05;;;;;;;9.63;8.85;;;;;;;22.92;77.54;95619.34;5038800;28;20203;-85
2023/09/11 03:45:32;;;;;;;10.10;9.30;;;;;;;22.94;76.95;95605.97;5030271;28;20224;-86
2023/09/11 03:48:00;;;;;;;10.30;9.25;;;;;;;22.92;76.92;95605.44;5031635;28;20201;-85
2023/09/11 03:50:26;;;;;;;10.00;9.10;;;;;;;22.89;76.94;95604.13;5048947;28;20878;-85
2023/09/11 03:52:55;;;;;;;10.13;9.23;;;;;;;22.92;76.92;95610.69;5034086;28;20198;-85
2023/09/11 03:55:21;;;;;;;10.15;9.30;;;;;;;22.94;77.07;95605.97;5022553;28;20198;-85
2023/09/11 03:57:48;;;;;;;10.07;9.20;;;;;;;22.92;76.80;95597.56;5029695;28;20210;-85
2023/09/11 04:00:15;;;;;;;9.63;8.77;;;;;;;22.79;77.02;95603.25;5029906;28;20210;-85
2023/09/11 04:02:41;;;;;;;10.70;9.60;;;;;;;22.70;77.41;95610.78;5029578;28;20202;-85
2023/09/11 04:05:09;;;;;;;10.93;9.93;;;;;;;22.59;77.51;95609.13;5039066;28;20225;-85
2023/09/11 04:07:36;;;;;;;10.27;9.45;;;;;;;22.51;78.40;95628.75;5049480;28;20229;-85
2023/09/11 04:10:02;;;;;;;9.43;8.52;;;;;;;22.60;78.33;95626.44;5033866;28;20220;-85
2023/09/11 04:12:29;;;;;;;9.48;8.77;;;;;;;22.67;78.43;95622.56;5029226;28;20217;-85
2023/09/11 04:14:55;;;;;;;9.73;8.88;;;;;;;22.68;78.39;95629.41;5029855;28;20198;-85
2023/09/11 04:17:22;;;;;;;9.88;9.07;;;;;;;22.69;77.85;95615.25;5029532;28;20224;-86
2023/09/11 04:19:48;;;;;;;9.88;9.18;;;;;;;22.68;77.41;95608.41;5028131;28;20920;-86
2023/09/11 04:22:18;;;;;;;9.88;9.18;;;;;;;22.65;77.50;95608.91;5048004;28;20217;-85
2023/09/11 04:24:45;;;;;;;10.38;8.85;;;;;;;22.61;77.47;95599.16;5034151;28;20705;-85
2023/09/11 04:27:11;;;;;;;10.18;9.38;;;;;;;22.54;78.10;95617.72;5028855;28;20729;-85
2023/09/11 04:29:37;;;;;;;9.93;9.13;;;;;;;22.54;78.05;95616.94;5029382;28;20206;-84
2023/09/11 04:32:04;;;;;;;10.60;9.70;;;;;;;22.50;78.34;95623.75;5029321;28;20206;-84
2023/09/11 04:34:31;;;;;;;11.13;10.20;;;;;;;22.47;78.53;95626.88;5028801;28;20228;-85
2023/09/11 04:36:57;;;;;;;10.60;9.70;;;;;;;22.43;78.60;95629.19;5035826;28;20220;-85
2023/09/11 04:39:25;;;;;;;10.05;9.35;;;;;;;22.44;78.50;95628.16;5048929;28;20209;-85
2023/09/11 04:41:52;;;;;;;10.82;9.63;;;;;;;22.44;78.67;95632.63;5048233;28;20201;-85
2023/09/11 04:44:18;;;;;;;10.10;9.27;;;;;;;22.47;78.33;95630.28;5028964;28;20240;-84
2023/09/11 04:46:45;;;;;;;9.98;9.25;;;;;;;22.56;78.00;95618.28;5028807;28;20276;-85
2023/09/11 04:49:12;;;;;;;10.55;9.55;;;;;;;22.61;77.43;95620.16;5026060;28;20640;-85
2023/09/11 04:51:38;;;;;;;10.38;9.40;;;;;;;22.54;78.13;95615.09;5023801;28;20194;-85
2023/09/11 04:54:05;;;;;;;10.68;9.88;;;;;;;22.55;77.73;95616.69;5043561;28;20210;-85
2023/09/11 04:56:33;;;;;;;10.60;9.57;;;;;;;22.62;77.70;95617.28;5049082;28;20571;-85
2023/09/11 04:58:59;;;;;;;10.38;9.48;;;;;;;22.64;77.63;95612.56;5048988;28;20688;-85
2023/09/11 05:01:26;;;;;;;10.63;9.55;;;;;;;22.64;77.46;95614.41;5049409;28;20205;-85
2023/09/11 05:03:52;;;;;;;11.05;10.05;;;;;;;22.67;77.39;95614.69;5047514;28;20225;-85
2023/09/11 05:06:19;;;;;;;10.30;9.50;;;;;;;22.64;77.57;95615.19;5048966;28;20226;-85
2023/09/11 05:08:45;;;;;;;10.80;9.80;;;;;;;22.62;77.52;95619.91;5045258;28;20717;-85
2023/09/11 05:11:11;;;;;;;10.70;9.90;;;;;;;22.64;77.75;95622.28;5045266;28;20633;-85
2023/09/11 05:13:39;;;;;;;10.73;9.82;;;;;;;22.66;77.82;95621.00;5037236;28;20229;-85
2023/09/11 05:16:06;;;;;;;11.20;10.18;;;;;;;22.66;77.96;95621.00;5048998;28;20249;-85
2023/09/11 05:18:32;;;;;;;10.77;9.93;;;;;;;22.71;77.90;95620.22;5047744;28;20247;-84
2023/09/11 05:20:59;;;;;;;10.55;9.65;;;;;;;22.75;77.25;95619.47;5048679;28;20209;-85
2023/09/11 05:23:26;;;;;;;10.98;10.00;;;;;;;22.68;78.02;95629.41;5045336;28;20198;-85
2023/09/11 05:25:52;;;;;;;12.00;10.23;;;;;;;22.65;78.33;95631.75;5039462;28;20238;-84
2023/09/11 05:28:19;;;;;;;11.02;10.00;;;;;;;22.71;78.06;95639.38;5048961;28;20701;-85
2023/09/11 05:30:47;;;;;;;11.02;10.23;;;;;;;22.82;78.14;95640.31;5050787;28;20585;-84
2023/09/11 05:33:13;;;;;;;11.57;10.55;;;;;;;22.91;78.23;95638.78;5057231;28;20204;-85
2023/09/11 05:35:39;;;;;;;10.70;9.80;;;;;;;22.93;78.21;95636.69;5049670;28;20221;-85
2023/09/11 05:38:06;;;;;;;11.63;10.65;;;;;;;22.94;78.43;95656.66;5049920;28;20205;-85
2023/09/11 05:40:32;;;;;;;10.77;9.88;;;;;;;23.00;78.54;95658.28;5045823;28;20563;-85
2023/09/11 05:42:59;;;;;;;11.77;10.70;;;;;;;23.06;78.94;95659.13;5042802;28;20208;-85
2023/09/11 05:45:25;;;;;;;16.67;14.90;;;;;;;23.12;78.48;95658.09;5028526;28;20214;-84
2023/09/11 05:47:53;;;;;;;13.02;11.80;;;;;;;23.18;78.38;95654.47;5025161;28;20209;-84
2023/09/11 05:50:21;;;;;;;11.57;10.48;;;;;;;23.22;78.09;95655.53;5028748;28;20213;-85
2023/09/11 05:52:48;;;;;;;11.35;10.40;;;;;;;23.25;78.48;95662.13;5028341;28;20201;-85
2023/09/11 05:55:15;;;;;;;11.98;10.80;;;;;;;23.27;78.44;95655.56;5028878;28;20674;-85
2023/09/11 05:57:41;;;;;;;11.07;9.98;;;;;;;23.30;78.38;95664.75;5035506;28;20225;-85
2023/09/11 06:00:12;;;;;;;11.15;10.10;;;;;;;23.32;78.50;95665.28;5048387;28;20216;-85
2023/09/11 06:02:39;;;;;;;11.52;10.55;;;;;;;23.35;78.32;95659.53;5047812;28;20694;-85
2023/09/11 06:05:07;;;;;;;13.32;10.70;;;;;;;23.43;78.68;95667.75;5048287;28;20300;-85
2023/09/11 06:07:34;;;;;;;11.02;10.00;;;;;;;23.52;78.19;95654.94;5035868;28;20225;-85
2023/09/11 06:10:00;;;;;;;11.00;10.02;;;;;;;23.59;78.18;95652.06;5007311;28;20253;-85
2023/09/11 06:12:29;;;;;;;11.63;10.73;;;;;;;23.56;78.92;95661.25;5028404;28;20690;-84
2023/09/11 06:14:58;;;;;;;11.27;10.30;;;;;;;23.60;78.66;95661.53;5047143;28;20193;-84
2023/09/11 06:17:24;;;;;;;10.95;10.05;;;;;;;23.66;78.70;95661.31;5050370;28;20221;-85
2023/09/11 06:19:51;;;;;;;10.88;9.93;;;;;;;23.75;78.30;95656.34;5051906;28;20725;-85
2023/09/11 06:22:19;;;;;;;10.93;9.95;;;;;;;23.83;77.81;95655.06;5037042;28;20209;-85
2023/09/11 06:24:45;;;;;;;11.60;10.57;;;;;;;23.91;77.79;95639.56;5030995;28;20225;-85
2023/09/11 06:27:13;;;;;;;11.15;9.98;;;;;;;24.00;77.23;95634.59;5031922;28;20225;-85
2023/09/11 06:29:39;;;;;;;11.18;10.20;;;;;;;24.11;76.94;95623.81;5036786;28;20296;-85
2023/09/11 06:32:06;;;;;;;10.48;9.57;;;;;;;24.23;76.25;95620.19;5051222;28;20210;-84
2023/09/11 06:34:33;;;;;;;12.10;9.85;;;;;;;24.37;75.84;95614.16;5051340;28;20197;-85
2023/09/11 06:36:59;;;;;;;10.45;9.55;;;;;;;24.48;75.21;95593.88;5051823;28;20232;-85
2023/09/11 06:39:28;;;;;;;10.63;9.68;;;;;;;24.61;74.81;95589.94;5051386;28;20198;-85
2023/09/11 06:41:54;;;;;;;11.43;10.48;;;;;;;24.70;74.52;95581.25;5026162;28;20230;-84
2023/09/11 06:44:21;;;;;;;12.15;11.18;;;;;;;24.76;74.34;95574.13;5011773;28;20226;-86
2023/09/11 06:46:47;;;;;;;13.93;12.60;;;;;;;24.91;73.49;95560.94;5040420;28;20225;-84
2023/09/11 06:49:14;;;;;;;12.48;11.27;;;;;;;25.01;73.00;95547.78;5051455;28;20212;-85
2023/09/11 06:51:40;;;;;;;13.07;10.60;;;;;;;25.13;72.34;95537.72;5050896;28;20198;-85
2023/09/11 06:54:09;;;;;;;11.30;10.20;;;;;;;25.29;71.63;95517.34;5050964;28;20208;-85
2023/09/11 06:56:37;;;;;;;11.07;9.95;;;;;;;25.46;71.44;95519.63;5051046;28;20218;-84
2023/09/11 06:59:04;;;;;;;10.55;9.70;;;;;;;25.58;70.01;95479.78;5051131;28;20212;-85
2023/09/11 07:01:31;;;;;;;10.95;10.05;;;;;;;25.76;69.28;95468.59;5047528;28;20194;-85
2023/09/11 07:03:57;;;;;;;10.85;9.90;;;;;;;25.94;68.87;95449.47;5043618;28;20209;-85
2023/09/11 07:06:24;;;;;;;10.65;9.50;;;;;;;26.13;67.85;95434.53;5050781;28;20236;-85
2023/09/11 07:08:50;;;;;;;10.65;9.75;;;;;;;26.27;67.83;95418.81;5045396;28;20230;-84
2023/09/11 07:11:17;;;;;;;14.73;12.55;;;;;;;26.27;67.98;95421.47;5031007;28;20210;-84
2023/09/11 07:13:45;;;;;;;12.25;10.43;;;;;;;26.48;67.28;95417.56;5031247;28;20301;-85
2023/09/11 07:16:12;;;;;;;10.57;9.55;;;;;;;26.64;66.78;95394.41;5030648;28;20722;-85
2023/09/11 07:18:38;;;;;;;11.15;10.15;;;;;;;26.77;65.83;95366.50;5039851;28;20205;-85
2023/09/11 07:21:05;;;;;;;11.65;10.50;;;;;;;26.83;65.10;95347.69;5045972;28;20213;-85
2023/09/11 07:23:31;;;;;;;10.90;9.85;;;;;;;26.96;64.29;95321.63;5030594;28;20206;-85
2023/09/11 07:25:58;;;;;;;10.00;9.20;;;;;;;27.11;64.15;95340.72;5029212;28;20222;-85
2023/09/11 07:28:26;;;;;;;11.15;10.15;;;;;;;27.27;63.95;95314.06;5030478;28;20225;-85
2023/09/11 07:30:54;;;;;;;9.85;9.02;;;;;;;27.44;63.71;95320.38;5030097;28;20201;-85
2023/09/11 07:33:21;;;;;;;10.63;9.73;;;;;;;27.63;63.16;95303.72;5028944;28;20198;-85
2023/09/11 07:35:50;;;;;;;10.48;9.48;;;;;;;27.79;62.26;95263.47;5048433;28;20221;-85
2023/09/11 07:38:18;;;;;;;10.60;9.60;;;;;;;27.97;62.04;95256.50;5028175;28;20207;-84
2023/09/11 07:40:44;;;;;;;10.95;9.73;;;;;;;28.10;61.32;95225.81;5025358;28;20634;-86
2023/09/11 07:43:11;;;;;;;10.13;9.15;;;;;;;28.24;60.54;95192.19;5018775;28;20587;-85
2023/09/11 07:45:38;;;;;;;10.35;9.40;;;;;;;28.37;59.99;95167.53;5010317;28;20950;-85
2023/09/11 07:48:06;;;;;;;10.38;9.48;;;;;;;28.53;59.10;95160.03;5010374;28;20207;-85
2023/09/11 07:50:32;;;;;;;13.93;11.65;;;;;;;28.58;58.12;95125.47;5026892;28;20198;-85
2023/09/11 07:52:59;;;;;;;10.85;9.90;;;;;;;28.67;57.96;95115.72;5049899;28;20201;-85
2023/09/11 07:55:25;;;;;;;10.23;9.23;;;;;;;28.79;57.78;95093.97;5050095;28;20228;-84
2023/09/11 07:57:53;;;;;;;10.10;9.18;;;;;;;28.87;57.23;95074.69;5050147;28;20205;-85
2023/09/11 08:00:19;;;;;;;9.25;8.45;;;;;;;28.97;56.92;95065.72;5034920;28;20206;-85
2023/09/11 08:02:48;;;;;;;9.75;8.98;;;;;;;29.20;57.24;95068.00;5008057;28;20234;-86
2023/09/11 08:05:16;;;;;;;10.10;9.20;;;;;;;29.36;55.82;95035.75;5029542;28;20222;-85
2023/09/11 08:07:42;;;;;;;9.75;8.88;;;;;;;29.49;55.75;95030.34;5044005;28;20225;-86
2023/09/11 08:10:09;;;;;;;10.25;9.35;;;;;;;29.66;56.22;95034.88;5032955;28;20715;-85
2023/09/11 08:12:38;;;;;;;9.35;8.65;;;;;;;29.72;55.60;95031.00;5029381;28;20206;-85
2023/09/11 08:15:06;;;;;;;9.60;8.80;;;;;;;29.95;54.85;95009.63;5029508;28;20201;-86
2023/09/11 08:17:32;;;;;;;8.68;8.00;;;;;;;29.99;53.49;94933.59;5028638;28;20233;-86
2023/09/11 08:19:59;;;;;;;9.93;8.93;;;;;;;30.15;53.30;94937.31;5029325;28;20213;-86
2023/09/11 08:22:26;;;;;;;9.57;8.75;;;;;;;30.30;53.29;94925.41;5031799;28;20206;-85
2023/09/11 08:24:53;;;;;;;9.35;8.50;;;;;;;30.43;53.91;94951.75;5045205;28;20222;-86
2023/09/11 08:27:20;;;;;;;10.55;8.95;;;;;;;30.37;53.03;94910.53;5029519;28;20233;-85
2023/09/11 08:29:47;;;;;;;19.48;17.83;;;;;;;30.50;52.54;94895.47;5029456;28;20198;-85
2023/09/11 08:32:13;;;;;;;11.85;10.95;;;;;;;30.63;53.07;94907.78;5029243;28;20205;-85
2023/09/11 08:34:39;;;;;;;10.07;9.07;;;;;;;30.84;52.77;94882.03;5022617;28;20206;-85
2023/09/11 08:37:06;;;;;;;9.90;8.88;;;;;;;30.86;52.49;94869.19;5027239;28;20225;-85
2023/09/11 08:39:38;;;;;;;9.52;8.65;;;;;;;30.95;50.50;94792.06;5040201;28;20197;-85
2023/09/11 08:42:05;;;;;;;8.27;7.57;;;;;;;31.09;49.65;94750.00;5046490;28;20209;-84
2023/09/11 08:44:32;;;;;;;8.57;7.78;;;;;;;31.18;49.97;94745.41;5028296;28;20209;-85
2023/09/11 08:47:00;;;;;;;8.50;7.80;;;;;;;31.29;48.88;94689.91;5028859;28;20594;-85
2023/09/11 08:49:33;;;;;;;9.20;8.27;;;;;;;31.29;48.21;94660.66;5028685;28;20232;-85
2023/09/11 08:52:03;;;;;;;9.02;8.23;;;;;;;31.31;48.39;94647.03;5028666;28;20198;-85
2023/09/11 08:54:37;;;;;;;9.05;8.43;;;;;;;31.41;48.07;94651.91;5030289;28;20212;-84
2023/09/11 08:57:05;;;;;;;8.52;7.68;;;;;;;31.58;47.33;94607.22;5046915;28;20231;-85
2023/09/11 08:59:37;;;;;;;8.38;7.78;;;;;;;31.49;46.49;94553.34;5037087;28;20241;-85
2023/09/11 09:02:04;;;;;;;8.45;7.68;;;;;;;31.69;46.59;94564.22;5048669;28;20209;-85
2023/09/11 09:04:34;;;;;;;9.65;8.40;;;;;;;31.67;46.14;94543.28;5048488;28;20207;-85
2023/09/11 09:07:01;;;;;;;8.80;7.95;;;;;;;31.87;47.26;94621.44;5048640;28;20632;-85
2023/09/11 09:09:28;;;;;;;7.70;7.10;;;;;;;31.76;45.32;94503.97;5038062;28;20194;-83
2023/09/11 09:11:56;;;;;;;8.43;7.72;;;;;;;31.92;46.29;94539.47;5040352;28;20201;-85
2023/09/11 09:14:27;;;;;;;8.68;7.25;;;;;;;32.12;45.66;94559.03;5048274;28;20228;-85
2023/09/11 09:16:59;;;;;;;8.25;7.65;;;;;;;32.29;44.23;94474.63;5047939;28;20221;-84
2023/09/11 09:19:25;;;;;;;7.72;7.03;;;;;;;32.35;44.35;94458.03;5036093;28;20202;-86
2023/09/11 09:22:13;;;;;;;7.60;7.00;;;;;;;32.48;43.11;94378.81;5028529;28;20210;-85
2023/09/11 09:24:48;;;;;;;8.35;7.72;;;;;;;32.37;43.16;94383.09;5027705;28;20214;-85
2023/09/11 09:27:16;;;;;;;8.27;7.68;;;;;;;32.49;43.26;94412.34;5034023;28;20221;-85
2023/09/11 09:29:42;;;;;;;8.20;7.60;;;;;;;32.59;42.77;94401.16;5021855;28;20675;-85
2023/09/11 09:32:10;;;;;;;7.35;6.85;;;;;;;32.52;42.66;94353.03;5019900;28;20587;-85
2023/09/11 09:34:38;;;;;;;7.65;7.05;;;;;;;32.33;42.61;94344.97;5028302;28;20198;-85
2023/09/11 09:37:05;;;;;;;8.13;7.45;;;;;;;32.46;42.31;94352.50;5028054;28;20222;-85
2023/09/11 09:39:33;;;;;;;8.00;7.30;;;;;;;32.41;40.96;94250.72;5028416;28;20202;-84
2023/09/11 09:42:02;;;;;;;7.88;7.07;;;;;;;32.33;41.48;94313.72;5027064;28;20206;-85
2023/09/11 09:44:30;;;;;;;7.82;7.07;;;;;;;32.25;41.52;94309.38;5040610;28;20213;-85
2023/09/11 09:46:57;;;;;;;7.55;7.05;;;;;;;32.27;40.94;94299.13;5047889;28;20240;-85
2023/09/11 09:49:23;;;;;;;7.68;6.75;;;;;;;32.26;41.37;94308.25;5049998;28;20384;-85
2023/09/11 09:51:52;;;;;;;10.90;7.82;;;;;;;32.40;41.29;94303.25;5044635;28;20206;-85
2023/09/11 09:54:18;;;;;;;7.97;7.25;;;;;;;32.49;41.80;94335.06;5032326;28;20204;-85
2023/09/11 09:56:47;;;;;;;7.88;7.20;;;;;;;32.64;41.58;94328.16;5032420;28;20599;-86
2023/09/11 09:59:24;;;;;;;8.02;7.35;;;;;;;32.66;41.94;94352.56;5035633;28;20204;-85
2023/09/11 10:01:52;;;;;;;7.65;7.05;;;;;;;32.67;41.48;94300.81;5051659;28;20208;-85
2023/09/11 10:04:20;;;;;;;7.40;6.80;;;;;;;32.68;42.01;94326.34;5051570;28;20241;-85
2023/09/11 10:06:53;;;;;;;7.57;7.07;;;;;;;32.72;41.68;94314.63;5051673;28;20229;-85
2023/09/11 10:09:21;;;;;;;12.05;10.85;;;;;;;32.76;41.14;94280.84;5042305;28;20578;-85
2023/09/11 10:11:51;;;;;;;9.02;8.38;;;;;;;32.71;41.32;94283.78;5031661;28;20615;-85
2023/09/11 10:14:19;;;;;;;7.68;6.97;;;;;;;32.61;40.83;94257.63;5032046;28;20209;-85
2023/09/11 10:16:46;;;;;;;7.40;6.80;;;;;;;32.57;41.41;94304.75;5046673;28;20222;-85
2023/09/11 10:19:16;;;;;;;7.80;7.10;;;;;;;32.65;41.42;94292.38;5040397;28;20726;-85
2023/09/11 10:21:42;;;;;;;7.00;6.50;;;;;;;32.69;41.79;94303.91;5031861;28;20583;-85
2023/09/11 10:24:11;;;;;;;7.50;6.95;;;;;;;32.77;41.62;94298.38;5031265;28;20206;-84
2023/09/11 10:26:44;;;;;;;7.50;7.00;;;;;;;32.84;41.49;94287.09;5024861;28;20222;-85
2023/09/11 10:29:12;;;;;;;8.02;7.22;;;;;;;32.84;40.63;94253.22;5029841;28;20202;-84
2023/09/11 10:31:44;;;;;;;7.30;6.70;;;;;;;32.70;40.58;94238.78;5036332;28;20225;-84
2023/09/11 10:34:12;;;;;;;7.30;6.70;;;;;;;32.51;41.17;94274.19;5051125;28;20212;-85
2023/09/11 10:36:46;;;;;;;7.13;6.53;;;;;;;32.45;41.54;94302.22;5051143;28;20218;-86
2023/09/11 10:39:14;;;;;;;7.85;7.10;;;;;;;32.39;41.99;94324.91;5050974;28;20244;-84
2023/09/11 10:41:42;;;;;;;7.22;6.72;;;;;;;32.37;42.40;94338.56;5050978;28;20263;-85
2023/09/11 10:44:09;;;;;;;7.72;6.75;;;;;;;32.42;42.63;94340.22;5031637;28;20202;-85
2023/09/11 10:46:39;;;;;;;7.30;6.70;;;;;;;32.44;41.49;94293.44;5030887;28;20234;-85
2023/09/11 10:49:15;;;;;;;6.88;6.38;;;;;;;32.35;40.57;94217.47;5045778;28;20201;-85
2023/09/11 10:51:43;;;;;;;7.00;6.50;;;;;;;32.34;40.89;94216.69;5051190;28;20201;-85
2023/09/11 10:54:12;;;;;;;7.15;6.65;;;;;;;32.11;40.24;94199.81;5050935;28;20201;-85
2023/09/11 10:56:39;;;;;;;7.40;6.80;;;;;;;32.03;41.19;94208.75;5050874;28;20221;-85
2023/09/11 10:59:06;;;;;;;7.25;6.50;;;;;;;32.01;41.39;94256.25;5050720;28;20201;-85
2023/09/11 11:01:33;;;;;;;7.30;6.72;;;;;;;31.96;41.04;94237.84;5049694;28;20202;-85
2023/09/11 11:04:02;;;;;;;9.23;8.43;;;;;;;32.00;40.69;94226.19;5046905;28;20260;-85
2023/09/11 11:06:29;;;;;;;7.95;7.25;;;;;;;32.03;40.77;94203.41;5050051;28;20238;-85
2023/09/11 11:08:56;;;;;;;7.15;6.65;;;;;;;31.95;40.17;94181.16;5044071;28;20269;-85
2023/09/11 11:11:27;;;;;;;6.93;6.43;;;;;;;31.92;41.11;94232.47;5030779;28;20206;-85
2023/09/11 11:14:14;;;;;;;7.05;6.55;;;;;;;31.87;41.54;94235.38;5031202;28;20511;-85
2023/09/11 11:16:53;;;;;;;7.15;6.50;;;;;;;31.99;41.78;94259.25;5039915;28;20576;-85
2023/09/11 11:19:25;;;;;;;6.90;6.40;;;;;;;32.11;40.63;94205.91;5029768;28;20206;-86
2023/09/11 11:21:52;;;;;;;7.70;7.00;;;;;;;32.00;41.27;94218.19;5046736;28;20201;-85
2023/09/11 11:24:25;;;;;;;7.45;6.30;;;;;;;31.67;41.99;94268.34;5022634;28;20244;-86
2023/09/11 11:26:55;;;;;;;6.22;5.80;;;;;;;31.45;40.70;94171.97;5010946;28;20242;-85
2023/09/11 11:29:22;;;;;;;6.90;6.40;;;;;;;31.44;40.55;94165.13;5010977;28;20237;-85
2023/09/11 11:31:54;;;;;;;6.63;5.78;;;;;;;31.60;40.44;94189.81;5010579;28;20211;-86